East Flat Rock, NC (28726)

07:23 EDT je la 26an de majo 2015 (GMT -0400)
Johnson Field Airport | | Change Station
CLOSE
Current Station
Personaj Veter-Stacioj
Location: Hendersonville, NC
Alteco: 2103 ft
Najbaraj veter-stacioj

Elev 2103 ft 35.31 °N, 82.43 °W | Updated 3 seconds ago

Nuboplena
Nuboplena
66.4 °F
Sentas kiel 66.4 °F
N
0.0
Vento Varianta Vento from Okcidento
Gusts 1.0 mej/h

hodiaŭ
High -- | Low -- °F
--% Ebla precip.
hieraŭ
High -- | Low -- °F
Precip. -- co
6:18 AM 8:35 PM
Unua kvaronluno, 57% visible
Aerpremo 30.32 co
Vidodistanco 10.0 mejloj
Nuboj Malpliparte nuba 1400 ft
Pliparte nuba 2500 ft
Nuboplena 3000 ft
Rosopunkto 64 °F
Humido 93%
Pluvokvanto 0.46 co
Neĝprofundo Not available.
UV 0 out of 12
Pollen .80 out of 12
Aerkvalito Not available.
Flu Activity No Activity
SPECI KAVL 261113Z 19006KT 10SM SCT014 BKN025 OVC030 19/17 A3032 RMK AO2 T01890172 $

More Conditions Fewer Conditions

Aerpremo 30.32 co
Vidodistanco 10.0 mejloj
Nuboj Malpliparte nuba 1400 ft
Pliparte nuba 2500 ft
Nuboplena 3000 ft
Rosopunkto 64 °F
Humido 93%
Pluvokvanto 0.46 co
Neĝprofundo Not available.
UV 0 out of 12
Pollen .80 out of 12
Aerkvalito Not available.
Flu Activity No Activity
SPECI KAVL 261113Z 19006KT 10SM SCT014 BKN025 OVC030 19/17 A3032 RMK AO2 T01890172 $

More Conditions Fewer Conditions

10-Day Weather Forecast

Almanac

Astronomio

May. 26, 2015 Leviĝo Subiro
Aktuala tempo
Civila krepusko
Naŭtika krepusko
Astronomia krepusko
Luno
Daŭro de videbla lumo
Daŭro de tago
Tomorrow will be .
, % of the Moon is Illuminated

Hodiaŭaj ekstremaĵoj

State Highs State Lows

Community

WunderPhotos

Upload Photos

1,824,304 photos uploaded!

WunderBlogs® & News

Nearby

Aerkvalito

  Aerkvalito Aerkvalita indico Poluanto
Not available.

Neĝa profundeco

Station Depth Alteco

Earthquake Activity

Urbo Distance Mag. Time & Date
Minimum magnitude displayed is 2.5.

Coastal Water Temperatures

Loko Temperaturo

Stations

Najbaraj veter-stacioj

Loko de stacio Temp Venta
kvazaŭtemperaturo
Rosopunkto Humido Vento Precip. Elev Ĝisdatigita je Tipo